Time;durP1;ratioP1;P1;durP2;ratioP2;P2;SDS_P1;SDS_P2;PMS_P1;PMS_P2;Temp;Humidity;BMP_temperature;BMP_pressure;BME280_temperature;BME280_humidity;BME280_pressure;Samples;Min_cycle;Max_cycle;Signal;HPM_P1;HPM_P2
2023/04/24 00:00:40;;;;;;;3.50;0.90;;;;;;;-145.69;100.00;52460.22;5074569;28;20561;-82
2023/04/24 00:03:09;;;;;;;3.20;0.97;;;;;;;-145.69;100.00;52448.34;5076893;28;20252;-81
2023/04/24 00:05:35;;;;;;;2.40;0.80;;;;;;;-145.69;100.00;52432.50;5076603;28;20655;-81
2023/04/24 00:08:02;;;;;;;4.17;1.20;;;;;;;-145.69;100.00;52480.03;5076222;28;20201;-81
2023/04/24 00:10:28;;;;;;;1.53;1.00;;;;;;;-145.69;100.00;52458.25;5076406;28;20199;-81
2023/04/24 00:12:55;;;;;;;5.77;0.93;;;;;;;-145.69;100.00;52476.06;5076428;28;20203;-81
2023/04/24 00:15:23;;;;;;;2.33;0.73;;;;;;;-145.69;100.00;52466.16;5076124;28;20669;-80
2023/04/24 00:17:49;;;;;;;4.27;0.77;;;;;;;-145.69;100.00;52456.28;5076119;28;20201;-81
2023/04/24 00:20:16;;;;;;;1.10;0.90;;;;;;;-145.69;100.00;52450.31;5075976;28;20566;-81
2023/04/24 00:22:43;;;;;;;2.43;1.10;;;;;;;-145.69;100.00;52456.28;5076302;28;20198;-82
2023/04/24 00:25:10;;;;;;;3.03;0.97;;;;;;;-145.69;100.00;52468.16;5075898;28;20226;-81
2023/04/24 00:27:37;;;;;;;2.13;0.90;;;;;;;-145.69;100.00;52472.13;5076011;28;20851;-81
2023/04/24 00:30:04;;;;;;;0.63;0.63;;;;;;;-145.69;100.00;52460.22;5076093;28;20298;-81
2023/04/24 00:32:32;;;;;;;2.83;1.00;;;;;;;-145.69;100.00;52434.47;5075828;28;20650;-81
2023/04/24 00:34:58;;;;;;;4.10;0.80;;;;;;;-145.69;100.00;52450.31;5075818;28;20535;-81
2023/04/24 00:37:25;;;;;;;2.10;0.90;;;;;;;-145.69;100.00;52464.19;5075874;28;20198;-81
2023/04/24 00:39:53;;;;;;;2.10;0.87;;;;;;;-145.69;100.00;52482.00;5076097;28;20206;-81
2023/04/24 00:42:21;;;;;;;1.80;0.70;;;;;;;-145.69;100.00;52462.22;5075977;28;20205;-81
2023/04/24 00:44:48;;;;;;;5.70;0.87;;;;;;;-145.69;100.00;52470.13;5075495;28;20234;-82
2023/04/24 00:47:16;;;;;;;2.20;0.73;;;;;;;-145.69;100.00;52432.50;5075661;28;20202;-81
2023/04/24 00:49:44;;;;;;;0.87;0.77;;;;;;;-145.69;100.00;52458.25;5075747;28;20598;-82
2023/04/24 00:52:17;;;;;;;2.20;0.87;;;;;;;-145.69;100.00;52468.16;5075330;28;20199;-82
2023/04/24 00:54:47;;;;;;;1.27;0.73;;;;;;;-145.69;100.00;52476.06;5075915;28;20222;-82
2023/04/24 00:57:15;;;;;;;2.77;0.80;;;;;;;-145.69;100.00;52444.38;5075565;28;20669;-81
2023/04/24 00:59:42;;;;;;;1.40;0.80;;;;;;;-145.69;100.00;52470.13;5075467;28;20203;-81
2023/04/24 01:02:08;;;;;;;3.67;0.70;;;;;;;-145.69;100.00;52480.03;5072176;28;20218;-81
2023/04/24 01:04:36;;;;;;;1.47;0.83;;;;;;;-145.69;100.00;52468.16;5075144;28;20217;-82
2023/04/24 01:07:10;;;;;;;0.97;0.50;;;;;;;-145.69;100.00;52480.03;5075248;28;20769;-82
2023/04/24 01:09:37;;;;;;;2.17;0.70;;;;;;;-145.69;100.00;52472.13;5075194;28;20201;-83
2023/04/24 01:12:04;;;;;;;2.23;0.63;;;;;;;-145.69;100.00;52480.03;5074223;28;20199;-82
2023/04/24 01:14:31;;;;;;;1.83;0.80;;;;;;;-145.69;100.00;52452.31;5075078;28;20661;-82
2023/04/24 01:17:09;;;;;;;4.23;1.10;;;;;;;-145.69;100.00;52444.38;5075069;28;20230;-81
2023/04/24 01:19:38;;;;;;;1.17;0.97;;;;;;;-145.69;100.00;52452.31;5075027;28;20645;-82
2023/04/24 01:22:11;;;;;;;2.10;0.80;;;;;;;-145.69;100.00;52464.19;5075381;28;20565;-82
2023/04/24 01:24:38;;;;;;;2.00;0.80;;;;;;;-145.69;100.00;52462.22;5074473;28;20199;-81
2023/04/24 01:27:04;;;;;;;0.70;0.70;;;;;;;-145.69;100.00;52462.22;5075116;28;20194;-82
2023/04/24 01:29:31;;;;;;;0.90;0.90;;;;;;;-145.69;100.00;52452.31;5074798;28;20203;-81
2023/04/24 01:32:00;;;;;;;1.03;0.60;;;;;;;-145.69;100.00;52454.28;5075539;28;20203;-82
2023/04/24 01:34:28;;;;;;;3.47;0.63;;;;;;;-145.69;100.00;52470.13;5074889;28;20201;-83
2023/04/24 01:36:58;;;;;;;0.87;0.60;;;;;;;-145.69;100.00;52446.38;5074691;28;20197;-82
2023/04/24 01:39:28;;;;;;;4.33;0.70;;;;;;;-145.69;100.00;52444.38;5074715;28;20191;-81
2023/04/24 01:41:58;;;;;;;1.77;0.80;;;;;;;-145.69;100.00;52456.28;5074991;28;20557;-83
2023/04/24 01:44:24;;;;;;;1.07;0.70;;;;;;;-145.69;100.00;52480.03;5074787;28;20202;-82
2023/04/24 01:46:51;;;;;;;1.33;0.70;;;;;;;-145.69;100.00;52446.38;5074482;28;20265;-82
2023/04/24 01:49:17;;;;;;;3.67;0.90;;;;;;;-145.69;100.00;52408.75;5074600;28;20203;-82
2023/04/24 01:51:46;;;;;;;0.90;0.90;;;;;;;-145.69;100.00;52468.16;5075353;28;20206;-82
2023/04/24 01:54:13;;;;;;;2.60;0.73;;;;;;;-145.69;100.00;52525.59;5073938;28;20202;-82
2023/04/24 01:56:43;;;;;;;2.17;0.97;;;;;;;-145.69;100.00;52484.00;5074475;28;20203;-82
2023/04/24 01:59:11;;;;;;;5.10;0.90;;;;;;;-145.69;100.00;52472.13;5074556;28;20623;-81
2023/04/24 02:01:38;;;;;;;1.30;0.80;;;;;;;-145.69;100.00;52495.88;5074485;28;20199;-82
2023/04/24 02:04:09;;;;;;;2.40;1.10;;;;;;;-145.69;100.00;52489.94;5074352;28;20198;-82
2023/04/24 02:06:35;;;;;;;2.10;0.80;;;;;;;-145.69;100.00;52476.06;5073927;28;20245;-81
2023/04/24 02:09:03;;;;;;;3.70;0.70;;;;;;;-145.69;100.00;52480.03;5074364;28;20207;-82
2023/04/24 02:11:29;;;;;;;1.07;0.90;;;;;;;-145.69;100.00;52458.25;5074118;28;20203;-82
2023/04/24 02:13:57;;;;;;;1.13;0.80;;;;;;;-145.69;100.00;52480.03;5074273;28;20203;-81
2023/04/24 02:16:24;;;;;;;2.37;1.00;;;;;;;-145.69;100.00;52468.16;5074326;28;20209;-82
2023/04/24 02:18:51;;;;;;;1.40;0.80;;;;;;;-145.69;100.00;52480.03;5074157;28;20199;-81
2023/04/24 02:21:23;;;;;;;4.67;0.90;;;;;;;-145.69;100.00;52470.13;5074186;28;20198;-82
2023/04/24 02:23:49;;;;;;;3.03;1.00;;;;;;;-145.69;100.00;52482.00;5072474;28;20566;-81
2023/04/24 02:26:18;;;;;;;2.53;0.80;;;;;;;-145.69;100.00;52491.91;5073608;28;20278;-82
2023/04/24 02:28:44;;;;;;;1.00;0.90;;;;;;;-145.69;100.00;52464.19;5074454;28;20203;-82
2023/04/24 02:31:15;;;;;;;1.63;0.97;;;;;;;-145.69;100.00;52460.22;5074041;28;20215;-82
2023/04/24 02:33:42;;;;;;;2.03;0.83;;;;;;;-145.69;100.00;52485.97;5073862;28;20226;-81
2023/04/24 02:36:09;;;;;;;3.47;1.20;;;;;;;-145.69;100.00;52452.31;5073647;28;20286;-82
2023/04/24 02:38:35;;;;;;;3.07;1.00;;;;;;;-145.69;100.00;52454.28;5073594;28;20290;-82
2023/04/24 02:41:05;;;;;;;3.70;0.73;;;;;;;-145.69;100.00;52442.41;5054182;28;20418;-82
2023/04/24 02:43:34;;;;;;;2.23;1.30;;;;;;;-145.69;100.00;52480.03;5054748;28;20207;-83
2023/04/24 02:46:10;;;;;;;1.53;1.20;;;;;;;-145.69;100.00;52456.28;5152996;27;20553;-82
2023/04/24 02:48:39;;;;;;;1.60;1.07;;;;;;;-145.69;100.00;52470.13;5152283;27;20555;-82
2023/04/24 02:51:06;;;;;;;2.63;1.13;;;;;;;-145.69;100.00;52484.00;5151742;27;20555;-82
2023/04/24 02:53:37;;;;;;;4.53;1.40;;;;;;;-145.69;100.00;52466.16;5151881;27;20227;-82
2023/04/24 02:56:04;;;;;;;3.60;1.00;;;;;;;-145.69;100.00;52480.03;5151632;27;20204;-78
2023/04/24 02:58:35;;;;;;;0.97;0.80;;;;;;;-145.69;100.00;52480.03;5151963;27;20227;-82
2023/04/24 03:01:02;;;;;;;4.73;1.10;;;;;;;-145.69;100.00;52497.84;5132712;27;20196;-82
2023/04/24 03:03:31;;;;;;;2.53;0.90;;;;;;;-145.69;100.00;52499.84;5151525;27;20221;-82
2023/04/24 03:05:58;;;;;;;0.67;0.67;;;;;;;-145.69;100.00;52491.91;5151397;27;20231;-82
2023/04/24 03:08:25;;;;;;;1.00;0.80;;;;;;;-145.69;100.00;52468.16;5151027;27;20705;-82
2023/04/24 03:10:57;;;;;;;4.93;0.80;;;;;;;-145.69;100.00;52478.06;5151429;27;20265;-82
2023/04/24 03:13:27;;;;;;;1.63;0.90;;;;;;;-145.69;100.00;52499.84;5150646;27;20196;-81
2023/04/24 03:15:54;;;;;;;3.13;0.87;;;;;;;-145.69;100.00;52464.19;5150828;27;20249;-82
2023/04/24 03:18:23;;;;;;;1.97;0.70;;;;;;;-145.69;100.00;52485.97;5151274;27;20672;-81
2023/04/24 03:20:51;;;;;;;1.63;0.90;;;;;;;-145.69;100.00;52484.00;5151092;27;20292;-80
2023/04/24 03:23:23;;;;;;;1.13;1.00;;;;;;;-145.69;100.00;52452.31;5151036;27;20737;-81
2023/04/24 03:25:54;;;;;;;3.00;0.70;;;;;;;-145.69;100.00;52484.00;5150743;27;20231;-82
2023/04/24 03:28:29;;;;;;;1.53;1.07;;;;;;;-145.69;100.00;52464.19;5151168;27;20842;-82
2023/04/24 03:31:00;;;;;;;0.77;0.77;;;;;;;-145.69;100.00;52476.06;5144993;27;20275;-82
2023/04/24 03:33:27;;;;;;;3.97;1.00;;;;;;;-145.69;100.00;52487.97;5130436;27;20193;-82
2023/04/24 03:35:56;;;;;;;1.80;0.97;;;;;;;-145.69;100.00;52472.13;5142721;27;20203;-82
2023/04/24 03:38:22;;;;;;;1.23;0.87;;;;;;;-145.69;100.00;52491.91;5150936;27;20245;-82
2023/04/24 03:40:53;;;;;;;1.50;0.90;;;;;;;-145.69;100.00;52476.06;5150777;27;20199;-81
2023/04/24 03:43:20;;;;;;;3.17;0.90;;;;;;;-145.69;100.00;52507.75;5150886;27;20204;-82
2023/04/24 03:45:46;;;;;;;0.90;0.90;;;;;;;-145.69;100.00;52487.97;5149995;27;20263;-81
2023/04/24 03:48:17;;;;;;;2.93;1.00;;;;;;;-145.69;100.00;52485.97;5150531;27;20646;-82
2023/04/24 03:50:45;;;;;;;0.93;0.73;;;;;;;-145.69;100.00;52499.84;5150623;27;20647;-82
2023/04/24 03:53:15;;;;;;;3.20;0.80;;;;;;;-145.69;100.00;52478.06;5150560;27;20291;-81
2023/04/24 03:55:42;;;;;;;2.63;1.07;;;;;;;-145.69;100.00;52495.88;5147371;27;20203;-81
2023/04/24 03:58:09;;;;;;;1.80;0.70;;;;;;;-145.69;100.00;52497.84;5136934;27;20192;-81
2023/04/24 04:00:40;;;;;;;2.47;0.77;;;;;;;-145.69;100.00;52484.00;5136876;27;20197;-81
2023/04/24 04:03:06;;;;;;;2.60;1.00;;;;;;;-145.69;100.00;52468.16;5136466;27;20197;-82
2023/04/24 04:05:35;;;;;;;1.67;0.90;;;;;;;-145.69;100.00;52484.00;5135966;27;20763;-82
2023/04/24 04:08:01;;;;;;;4.87;1.00;;;;;;;-145.69;100.00;52485.97;5135948;27;20579;-81
2023/04/24 04:10:32;;;;;;;1.37;1.20;;;;;;;-145.69;100.00;52478.06;5136693;27;20201;-82
2023/04/24 04:13:02;;;;;;;3.10;1.10;;;;;;;-145.69;100.00;52499.84;5136229;27;20199;-81
2023/04/24 04:15:28;;;;;;;0.90;0.90;;;;;;;-145.69;100.00;52491.91;5136580;27;20281;-81
2023/04/24 04:17:58;;;;;;;1.10;0.97;;;;;;;-145.69;100.00;52487.97;5136228;27;20274;-81
2023/04/24 04:20:25;;;;;;;1.83;1.13;;;;;;;-145.69;100.00;52503.81;5135997;27;20201;-81
2023/04/24 04:22:51;;;;;;;1.03;0.93;;;;;;;-145.69;100.00;52499.84;5135353;27;20284;-82
2023/04/24 04:25:19;;;;;;;3.23;1.10;;;;;;;-145.69;100.00;52493.91;5135878;27;20228;-80
2023/04/24 04:27:47;;;;;;;4.50;1.20;;;;;;;-145.69;100.00;52529.53;5135050;27;20433;-81
2023/04/24 04:30:14;;;;;;;3.77;0.90;;;;;;;-145.69;100.00;52491.91;5136028;27;20226;-82
2023/04/24 04:32:41;;;;;;;3.87;0.97;;;;;;;-145.69;100.00;52497.84;5136197;27;20617;-81
2023/04/24 04:35:08;;;;;;;3.57;1.00;;;;;;;-145.69;100.00;52480.03;5135559;27;20196;-82
2023/04/24 04:37:35;;;;;;;2.50;1.00;;;;;;;-145.69;100.00;52468.16;5135974;27;20208;-82
2023/04/24 04:40:06;;;;;;;1.77;0.90;;;;;;;-145.69;100.00;52487.97;5135570;27;20212;-82
2023/04/24 04:42:33;;;;;;;3.17;2.17;;;;;;;-145.69;100.00;52476.06;5135549;27;20666;-81
2023/04/24 04:45:02;;;;;;;1.90;0.90;;;;;;;-145.69;100.00;52507.75;5135416;27;20686;-82
2023/04/24 04:47:31;;;;;;;2.93;1.60;;;;;;;-145.69;100.00;52501.81;5135836;27;20197;-82
2023/04/24 04:49:58;;;;;;;3.13;1.00;;;;;;;-145.69;100.00;52468.16;5135504;27;20200;-81
2023/04/24 04:52:26;;;;;;;3.03;1.70;;;;;;;-145.69;100.00;52480.03;5135998;27;20201;-83
2023/04/24 04:54:52;;;;;;;1.97;1.37;;;;;;;-145.69;100.00;52515.69;5117368;27;20201;-81
2023/04/24 04:57:20;;;;;;;2.53;1.40;;;;;;;-145.69;100.00;52491.91;5135279;27;20678;-82
2023/04/24 04:59:47;;;;;;;3.17;1.80;;;;;;;-145.69;100.00;52505.78;5135663;27;20593;-82
2023/04/24 05:02:14;;;;;;;2.70;1.53;;;;;;;-145.69;100.00;52505.78;5135324;27;20219;-82
2023/04/24 05:04:41;;;;;;;4.80;1.47;;;;;;;-145.69;100.00;52515.69;5134834;27;20203;-82
2023/04/24 05:07:07;;;;;;;4.33;2.07;;;;;;;-145.69;100.00;52537.47;5134318;27;20197;-82
2023/04/24 05:09:34;;;;;;;3.40;2.30;;;;;;;-145.69;100.00;52515.69;5133677;27;20193;-83
2023/04/24 05:12:01;;;;;;;3.33;2.17;;;;;;;-145.69;100.00;52509.75;5134829;27;20196;-82
2023/04/24 05:14:28;;;;;;;3.33;2.00;;;;;;;-145.69;100.00;52505.78;5134200;27;20589;-82
2023/04/24 05:16:54;;;;;;;4.83;2.17;;;;;;;-145.69;100.00;52527.56;5135072;27;20193;-83
2023/04/24 05:19:22;;;;;;;7.60;2.37;;;;;;;-145.69;100.00;52505.78;5134762;27;20239;-82
2023/04/24 05:21:49;;;;;;;3.73;2.00;;;;;;;-145.69;100.00;52515.69;5135180;27;20659;-82
2023/04/24 05:24:15;;;;;;;4.03;2.57;;;;;;;-145.69;100.00;52541.44;5134976;27;20200;-83
2023/04/24 05:26:42;;;;;;;4.57;2.60;;;;;;;-145.69;100.00;52499.84;5135067;27;20227;-82
2023/04/24 05:29:08;;;;;;;5.90;2.73;;;;;;;-145.69;100.00;52533.50;5135002;27;20199;-82
2023/04/24 05:31:35;;;;;;;3.90;2.43;;;;;;;-145.69;100.00;52513.69;5135223;27;20223;-83
2023/04/24 05:34:01;;;;;;;5.83;2.80;;;;;;;-145.69;100.00;52503.81;5130633;27;20283;-83
2023/04/24 05:36:30;;;;;;;6.50;2.63;;;;;;;-145.69;100.00;52476.06;5132332;27;20193;-83
2023/04/24 05:38:57;;;;;;;4.13;2.70;;;;;;;-145.69;100.00;52519.63;5134812;27;20203;-82
2023/04/24 05:41:23;;;;;;;8.10;2.50;;;;;;;-145.69;100.00;52523.59;5134833;27;20204;-83
2023/04/24 05:43:50;;;;;;;2.73;2.10;;;;;;;-145.69;100.00;52501.81;5134161;27;20192;-82
2023/04/24 05:46:17;;;;;;;4.60;2.57;;;;;;;-145.69;100.00;52515.69;5134794;27;20256;-83
2023/04/24 05:48:43;;;;;;;2.90;2.53;;;;;;;-145.69;100.00;52541.44;5134975;27;20207;-83
2023/04/24 05:51:10;;;;;;;2.43;2.00;;;;;;;-145.69;100.00;52525.59;5134543;27;20201;-82
2023/04/24 05:53:39;;;;;;;3.93;2.47;;;;;;;-145.69;100.00;52519.63;5114112;28;20201;-83
2023/04/24 05:56:06;;;;;;;3.80;2.33;;;;;;;-145.69;100.00;52527.56;5113997;28;20206;-83
2023/04/24 05:58:33;;;;;;;3.50;2.43;;;;;;;-145.69;100.00;52507.75;5113859;28;20200;-83
2023/04/24 06:01:01;;;;;;;3.33;2.20;;;;;;;-145.69;100.00;52499.84;5113954;28;20198;-84
2023/04/24 06:03:27;;;;;;;4.73;2.17;;;;;;;-145.69;100.00;52509.75;5116192;27;20204;-83
2023/04/24 06:05:54;;;;;;;3.63;2.10;;;;;;;-145.69;100.00;52487.97;5134220;27;20779;-83
2023/04/24 06:08:21;;;;;;;3.20;2.00;;;;;;;-145.69;100.00;52489.94;5134201;27;20205;-82
2023/04/24 06:10:49;;;;;;;2.57;1.90;;;;;;;-145.69;100.00;52545.38;5132670;27;20188;-82
2023/04/24 06:13:15;;;;;;;4.63;2.13;;;;;;;-145.69;100.00;52493.91;5134283;27;20287;-82
2023/04/24 06:15:42;;;;;;;5.97;2.37;;;;;;;-145.69;100.00;52515.69;5134311;27;20209;-84
2023/04/24 06:18:09;;;;;;;2.33;2.00;;;;;;;-145.69;100.00;52495.88;5133903;27;20204;-83
2023/04/24 06:20:36;;;;;;;4.67;2.13;;;;;;;-145.69;100.00;52499.84;5134481;27;20773;-83
2023/04/24 06:23:03;;;;;;;2.23;1.67;;;;;;;-145.69;100.00;52478.06;5136554;27;20693;-83
2023/04/24 06:25:30;;;;;;;3.17;1.83;;;;;;;-145.69;100.00;52515.69;5136563;27;20220;-82
2023/04/24 06:27:58;;;;;;;3.53;2.40;;;;;;;-145.69;100.00;52478.06;5136390;27;20189;-82
2023/04/24 06:30:24;;;;;;;3.77;2.03;;;;;;;-145.69;100.00;52470.13;5136161;27;20193;-82
2023/04/24 06:32:51;;;;;;;4.00;2.20;;;;;;;-145.69;100.00;52489.94;5135356;27;20188;-84
2023/04/24 06:35:18;;;;;;;7.53;2.67;;;;;;;-145.69;100.00;52478.06;5119430;27;20197;-80
2023/04/24 06:37:44;;;;;;;3.77;2.27;;;;;;;-145.69;100.00;52440.44;5114277;28;20201;-81
2023/04/24 06:40:11;;;;;;;2.70;1.83;;;;;;;-145.69;100.00;52450.31;5113848;28;20212;-80
2023/04/24 06:42:38;;;;;;;3.53;1.83;;;;;;;-145.69;100.00;52470.13;5122435;28;20270;-81
2023/04/24 06:45:06;;;;;;;4.90;1.80;;;;;;;-145.69;100.00;52474.09;5133648;27;20228;-81
2023/04/24 06:47:33;;;;;;;2.23;1.60;;;;;;;-145.69;100.00;52460.22;5133662;27;20197;-81
2023/04/24 06:49:59;;;;;;;5.50;1.70;;;;;;;-145.69;100.00;52464.19;5133912;27;20601;-81
2023/04/24 06:52:26;;;;;;;1.87;1.50;;;;;;;-145.69;100.00;52484.00;5133854;28;20256;-80
2023/04/24 06:54:52;;;;;;;2.50;1.50;;;;;;;-145.69;100.00;52448.34;5134351;27;20208;-80
2023/04/24 06:57:20;;;;;;;2.00;1.50;;;;;;;-145.69;100.00;52476.06;5134294;27;20201;-80
2023/04/24 06:59:46;;;;;;;2.63;1.63;;;;;;;-145.69;100.00;52468.16;5133971;27;20295;-81
2023/04/24 07:02:14;;;;;;;6.93;1.77;;;;;;;-145.69;100.00;52460.22;5133778;28;20201;-81
2023/04/24 07:04:41;;;;;;;2.50;1.70;;;;;;;-145.69;100.00;52476.06;5132642;28;20193;-82
2023/04/24 07:07:09;;;;;;;2.53;1.97;;;;;;;-145.69;100.00;52458.25;5133816;27;20251;-81
2023/04/24 07:09:38;;;;;;;4.90;1.80;;;;;;;-145.69;100.00;52484.00;5133214;28;20210;-81
2023/04/24 07:12:05;;;;;;;3.13;1.60;;;;;;;-145.69;100.00;52476.06;5129260;28;20555;-80
2023/04/24 07:14:31;;;;;;;4.27;1.60;;;;;;;-145.69;100.00;52460.22;5133543;27;20203;-80
2023/04/24 07:16:58;;;;;;;1.90;1.53;;;;;;;-145.69;100.00;52474.09;5133699;28;20224;-80
2023/04/24 07:19:26;;;;;;;4.60;1.90;;;;;;;-145.69;100.00;52460.22;5133836;27;20225;-80
2023/04/24 07:21:53;;;;;;;2.90;1.60;;;;;;;-145.69;100.00;52464.19;5133730;28;20670;-80
2023/04/24 07:24:20;;;;;;;1.60;1.40;;;;;;;-145.69;100.00;52464.19;5133397;28;20197;-81
2023/04/24 07:26:46;;;;;;;1.60;1.50;;;;;;;-145.69;100.00;52507.75;5134015;28;20227;-79
2023/04/24 07:29:14;;;;;;;1.37;1.10;;;;;;;-145.69;100.00;52527.56;5133472;27;20200;-79
2023/04/24 07:31:40;;;;;;;4.23;1.20;;;;;;;-145.69;100.00;52525.59;5135117;27;20201;-79
2023/04/24 07:34:07;;;;;;;1.60;1.10;;;;;;;-145.69;100.00;52551.31;5137031;27;20287;-79
2023/04/24 07:36:35;;;;;;;1.97;1.50;;;;;;;-145.69;100.00;52515.69;5133448;27;20204;-80
2023/04/24 07:39:02;;;;;;;3.00;1.37;;;;;;;-145.69;100.00;52499.84;5121685;27;20227;-80
2023/04/24 07:41:28;;;;;;;2.13;1.40;;;;;;;-145.69;100.00;52503.81;5136338;27;20189;-81
2023/04/24 07:43:55;;;;;;;3.80;1.37;;;;;;;-145.69;100.00;52503.81;5136654;27;20193;-80
2023/04/24 07:46:23;;;;;;;4.83;1.30;;;;;;;-145.69;100.00;52484.00;5136859;27;20224;-80
2023/04/24 07:48:49;;;;;;;4.60;1.50;;;;;;;-145.69;100.00;52573.13;5136827;27;20228;-79
2023/04/24 07:51:16;;;;;;;1.53;1.43;;;;;;;-145.69;100.00;52513.69;5136901;27;20197;-79
2023/04/24 07:53:44;;;;;;;2.43;1.40;;;;;;;-145.69;100.00;52495.88;5136656;27;20193;-80
2023/04/24 07:56:10;;;;;;;1.77;1.53;;;;;;;-145.69;100.00;52509.75;5137091;27;20555;-79
2023/04/24 07:58:37;;;;;;;2.20;1.60;;;;;;;-145.69;100.00;52513.69;5134893;27;20197;-82
2023/04/24 08:01:03;;;;;;;1.67;1.33;;;;;;;-145.69;100.00;52527.56;5130149;28;20197;-80
2023/04/24 08:03:30;;;;;;;2.50;1.40;;;;;;;-145.69;100.00;52503.81;5131137;27;20189;-79
2023/04/24 08:05:57;;;;;;;1.70;1.30;;;;;;;-145.69;100.00;52491.91;5140840;27;20232;-81
2023/04/24 08:08:23;;;;;;;3.00;1.23;;;;;;;-145.69;100.00;52485.97;5148568;27;20258;-81
2023/04/24 08:10:51;;;;;;;3.00;1.60;;;;;;;-145.69;100.00;52501.81;5141984;27;20242;-81
2023/04/24 08:13:18;;;;;;;3.07;1.60;;;;;;;-145.69;100.00;52491.91;5131588;27;20289;-81
2023/04/24 08:15:45;;;;;;;1.83;1.33;;;;;;;-145.69;100.00;52529.53;5118822;28;20205;-81
2023/04/24 08:18:12;;;;;;;1.60;1.30;;;;;;;-145.69;100.00;52493.91;5120333;27;20272;-81
2023/04/24 08:20:39;;;;;;;3.90;1.40;;;;;;;-145.69;100.00;52507.75;5138822;27;20721;-81
2023/04/24 08:23:05;;;;;;;2.57;1.30;;;;;;;-145.69;100.00;52464.19;5139461;27;20198;-81
2023/04/24 08:25:32;;;;;;;4.50;1.40;;;;;;;-145.69;100.00;52489.94;5141300;27;20200;-82
2023/04/24 08:28:00;;;;;;;6.17;2.23;;;;;;;-145.69;100.00;52487.97;5143729;27;20208;-84
2023/04/24 08:30:26;;;;;;;3.27;1.77;;;;;;;-145.69;100.00;52470.13;5126320;27;20718;-82
2023/04/24 08:32:53;;;;;;;3.53;2.00;;;;;;;-145.69;100.00;52499.84;5136438;27;20208;-82
2023/04/24 08:35:19;;;;;;;3.47;1.73;;;;;;;-145.69;100.00;52503.81;5123066;27;20200;-82
2023/04/24 08:37:46;;;;;;;7.00;2.00;;;;;;;-145.69;100.00;52507.75;5136671;27;20201;-82
2023/04/24 08:40:14;;;;;;;5.20;1.87;;;;;;;-145.69;100.00;52515.69;5137289;27;20201;-84
2023/04/24 08:42:43;;;;;;;4.23;2.13;;;;;;;-145.69;100.00;52507.75;5138681;27;20559;-83
2023/04/24 08:45:13;;;;;;;4.23;2.53;;;;;;;-145.69;100.00;52489.94;5140874;27;20232;-83
2023/04/24 08:47:40;;;;;;;2.33;1.70;;;;;;;-145.69;100.00;52485.97;5141171;27;20212;-83
2023/04/24 08:50:08;;;;;;;4.30;1.70;;;;;;;-145.69;100.00;52464.19;5145023;27;20228;-83
2023/04/24 08:52:35;;;;;;;1.90;1.60;;;;;;;-145.69;100.00;52482.00;5137524;27;20192;-83
2023/04/24 08:55:02;;;;;;;2.83;1.73;;;;;;;-145.69;100.00;52484.00;5144190;27;20192;-81
2023/04/24 08:57:29;;;;;;;4.80;2.20;;;;;;;-145.69;100.00;52456.28;5146103;27;20204;-82
2023/04/24 08:59:58;;;;;;;3.67;1.80;;;;;;;-145.69;100.00;52476.06;5140068;27;20204;-84
2023/04/24 09:02:30;;;;;;;3.40;2.10;;;;;;;-145.69;100.00;52503.81;5134012;27;20200;-83
2023/04/24 09:04:58;;;;;;;2.97;1.80;;;;;;;-145.69;100.00;52478.06;5146770;27;20207;-80
2023/04/24 09:07:26;;;;;;;4.63;2.07;;;;;;;-145.69;100.00;52499.84;5136864;27;20224;-78
2023/04/24 09:09:53;;;;;;;4.93;1.83;;;;;;;-145.69;100.00;52525.59;5136770;27;20249;-80
2023/04/24 09:12:20;;;;;;;6.83;2.27;;;;;;;-145.69;100.00;52491.91;5135244;27;20189;-81
2023/04/24 09:14:46;;;;;;;3.77;1.83;;;;;;;-145.69;100.00;52499.84;5136339;27;20225;-81
2023/04/24 09:17:13;;;;;;;7.93;2.37;;;;;;;-145.69;100.00;52497.84;5138372;27;20196;-81
2023/04/24 09:19:41;;;;;;;5.80;1.77;;;;;;;-145.69;100.00;52503.81;5138930;27;20203;-82
2023/04/24 09:22:08;;;;;;;5.43;1.90;;;;;;;-145.69;100.00;52482.00;5137990;27;20655;-82
2023/04/24 09:24:36;;;;;;;3.63;1.70;;;;;;;-145.69;100.00;52489.94;5138383;27;20196;-78
2023/04/24 09:27:03;;;;;;;3.80;1.53;;;;;;;-145.69;100.00;52484.00;5138485;27;20244;-81
2023/04/24 09:29:31;;;;;;;3.50;1.87;;;;;;;-145.69;100.00;52507.75;5138981;27;20273;-80
2023/04/24 09:31:58;;;;;;;5.80;1.93;;;;;;;-145.69;100.00;52487.97;5137881;27;20659;-82
2023/04/24 09:34:26;;;;;;;5.70;2.00;;;;;;;-145.69;100.00;52485.97;5139489;27;20200;-83
2023/04/24 09:36:55;;;;;;;4.67;1.57;;;;;;;-145.69;100.00;52476.06;5138711;27;20200;-82
2023/04/24 09:39:21;;;;;;;5.23;1.57;;;;;;;-145.69;100.00;52466.16;5121837;27;20323;-82
2023/04/24 09:41:50;;;;;;;4.03;1.80;;;;;;;-145.69;100.00;52487.97;5127102;27;20197;-82
2023/04/24 09:44:20;;;;;;;5.23;2.40;;;;;;;-145.69;100.00;52505.78;5119096;27;20228;-82
2023/04/24 09:46:51;;;;;;;4.73;1.80;;;;;;;-145.69;100.00;52472.13;5117540;28;20225;-82
2023/04/24 09:49:23;;;;;;;2.77;1.67;;;;;;;-145.69;100.00;52468.16;5118424;28;20648;-82
2023/04/24 09:51:49;;;;;;;3.57;1.53;;;;;;;-145.69;100.00;52462.22;5118852;28;20667;-82
2023/04/24 09:54:19;;;;;;;5.67;1.40;;;;;;;-145.69;100.00;52491.91;5128340;27;20196;-82
2023/04/24 09:56:47;;;;;;;2.03;1.50;;;;;;;-145.69;100.00;52456.28;5139322;27;20204;-82
2023/04/24 09:59:15;;;;;;;2.43;1.37;;;;;;;-145.69;100.00;52440.44;5135863;27;20208;-84
2023/04/24 10:01:44;;;;;;;2.17;1.20;;;;;;;-145.69;100.00;52464.19;5135545;27;20655;-84
2023/04/24 10:04:19;;;;;;;4.33;1.57;;;;;;;-145.69;100.00;52480.03;5137505;27;20203;-80
2023/04/24 10:06:46;;;;;;;2.23;1.70;;;;;;;-145.69;100.00;52482.00;5137970;27;20314;-80
2023/04/24 10:09:13;;;;;;;5.90;1.60;;;;;;;-145.69;100.00;52503.81;5135133;27;20219;-86
2023/04/24 10:11:45;;;;;;;5.47;1.93;;;;;;;-145.69;100.00;52491.91;5136096;27;20197;-79
2023/04/24 10:14:13;;;;;;;3.57;1.97;;;;;;;-145.69;100.00;52491.91;5134775;27;20597;-83
2023/04/24 10:16:41;;;;;;;2.77;1.67;;;;;;;-145.69;100.00;52499.84;5134849;27;20202;-80
2023/04/24 10:19:20;;;;;;;6.63;2.10;;;;;;;-145.69;100.00;52487.97;5134494;27;20212;-79
2023/04/24 10:21:50;;;;;;;3.17;1.87;;;;;;;-145.69;100.00;52485.97;5134627;27;20196;-80
2023/04/24 10:24:21;;;;;;;4.83;2.13;;;;;;;-145.69;100.00;52505.78;5134891;27;20565;-82
2023/04/24 10:26:49;;;;;;;4.43;2.37;;;;;;;-145.69;100.00;52484.00;5134049;27;20220;-82
2023/04/24 10:29:18;;;;;;;4.90;2.27;;;;;;;-145.69;100.00;52515.69;5133808;27;20201;-81
2023/04/24 10:31:46;;;;;;;7.10;2.80;;;;;;;-145.69;100.00;52487.97;5134137;27;20205;-79
2023/04/24 10:34:13;;;;;;;3.43;2.50;;;;;;;-145.69;100.00;52480.03;5133707;27;20224;-79
2023/04/24 10:36:43;;;;;;;5.97;3.03;;;;;;;-145.69;100.00;52474.09;5133632;27;20220;-80
2023/04/24 10:39:14;;;;;;;3.50;2.10;;;;;;;-145.69;100.00;52468.16;5134628;27;20659;-80
2023/04/24 10:41:41;;;;;;;8.53;2.10;;;;;;;-145.69;100.00;52478.06;5133706;27;20659;-79
2023/04/24 10:44:10;;;;;;;4.47;2.00;;;;;;;-145.69;100.00;52487.97;5133691;27;20231;-79
2023/04/24 10:46:38;;;;;;;4.30;2.30;;;;;;;-145.69;100.00;52464.19;5133573;27;20216;-81
2023/04/24 10:49:08;;;;;;;6.80;1.90;;;;;;;-145.69;100.00;52468.16;5133758;28;20201;-82
2023/04/24 10:51:49;;;;;;;4.43;1.60;;;;;;;-145.69;100.00;52503.81;5133360;28;20195;-79
2023/04/24 10:54:27;;;;;;;4.63;2.03;;;;;;;-145.69;100.00;52489.94;5113307;28;20197;-82
2023/04/24 10:56:54;;;;;;;3.27;1.60;;;;;;;-145.69;100.00;52456.28;5113569;28;20201;-82
2023/04/24 10:59:28;;;;;;;2.83;1.23;;;;;;;-145.69;100.00;52456.28;5113797;28;20197;-81
2023/04/24 11:01:56;;;;;;;5.35;1.65;;;;;;;-145.69;100.00;52480.03;5130176;28;20446;-81
2023/04/24 11:04:32;;;;;;;2.50;1.60;;;;;;;-145.69;90.98;52489.94;5133858;27;20197;-82
2023/04/24 11:07:00;;;;;;;7.00;1.83;;;;;;;-145.69;100.00;52466.16;5135961;27;20224;-82
2023/04/24 11:09:28;;;;;;;4.53;1.20;;;;;;;-145.69;96.33;52428.53;5138149;27;20196;-82
2023/04/24 11:12:06;;;;;;;1.63;1.30;;;;;;;-145.69;89.89;52460.22;5137840;27;20204;-82